createdAt,value
2018-09-18T00:00:17.167Z,78.3
2018-09-18T00:01:17.221Z,78.3
2018-09-18T00:02:16.489Z,78.6
2018-09-18T00:03:16.768Z,78.6
2018-09-18T00:04:17.403Z,78.6
2018-09-18T00:05:16.682Z,78.6
2018-09-18T00:06:16.949Z,78.7
2018-09-18T00:07:17.218Z,78.6
2018-09-18T00:08:16.497Z,78.3
2018-09-18T00:09:17.171Z,78.3
2018-09-18T00:10:16.446Z,78.7
2018-09-18T00:11:16.489Z,78.8
2018-09-18T00:12:16.775Z,79.0
2018-09-18T00:13:17.043Z,78.8
2018-09-18T00:14:16.315Z,78.7
2018-09-18T00:15:16.588Z,78.5
2018-09-18T00:16:16.853Z,79.1
2018-09-18T00:17:17.113Z,79.2
2018-09-18T00:18:16.384Z,79.0
2018-09-18T00:19:16.661Z,78.8
2018-09-18T00:20:16.954Z,78.7
2018-09-18T00:21:16.985Z,78.7
2018-09-18T00:22:17.270Z,78.7
2018-09-18T00:23:16.537Z,78.7
2018-09-18T00:24:16.811Z,78.7
2018-09-18T00:25:17.082Z,78.7
2018-09-18T00:26:16.360Z,78.6
2018-09-18T00:27:16.625Z,78.6
2018-09-18T00:28:16.898Z,78.6
2018-09-18T00:29:17.190Z,78.6
2018-09-18T00:30:16.482Z,78.7
2018-09-18T00:31:16.510Z,78.8
2018-09-18T00:32:16.780Z,78.7
2018-09-18T00:33:17.047Z,78.8
2018-09-18T00:34:16.315Z,78.7
2018-09-18T00:35:16.581Z,78.8
2018-09-18T00:36:16.843Z,78.8
2018-09-18T00:37:17.121Z,78.8
2018-09-18T00:38:16.392Z,78.8
2018-09-18T00:39:16.660Z,78.8
2018-09-18T00:40:16.934Z,79.1
2018-09-18T00:41:16.987Z,79.2
2018-09-18T00:42:16.258Z,79.3
2018-09-18T00:43:16.534Z,79.2
2018-09-18T00:44:16.807Z,79.2
2018-09-18T00:45:17.260Z,79.4
2018-09-18T00:46:16.546Z,79.5
2018-09-18T00:47:16.823Z,79.6
2018-09-18T00:48:17.096Z,79.4
2018-09-18T00:49:16.372Z,79.5
2018-09-18T00:50:16.894Z,79.5
2018-09-18T00:51:16.689Z,79.7
2018-09-18T00:52:16.957Z,79.9
2018-09-18T00:53:17.234Z,79.9
2018-09-18T00:54:16.527Z,80.0
2018-09-18T00:55:16.799Z,80.2
2018-09-18T00:56:17.083Z,80.5
2018-09-18T00:57:16.353Z,80.6
2018-09-18T00:58:16.641Z,80.8
2018-09-18T00:59:16.909Z,80.9
2018-09-18T01:00:17.224Z,81.1
2018-09-18T01:01:17.243Z,81.0
2018-09-18T01:02:16.514Z,80.8
2018-09-18T01:03:16.790Z,81.1
2018-09-18T01:04:17.055Z,81.2
2018-09-18T01:05:16.337Z,81.3
2018-09-18T01:06:16.624Z,81.3
2018-09-18T01:07:16.890Z,81.3
2018-09-18T01:08:17.166Z,81.5
2018-09-18T01:09:16.431Z,81.6
2018-09-18T01:10:16.707Z,81.8
2018-09-18T01:11:16.740Z,81.7
2018-09-18T01:12:17.013Z,81.7
2018-09-18T01:13:16.274Z,81.8
2018-09-18T01:14:16.532Z,81.8
2018-09-18T01:15:16.799Z,81.9
2018-09-18T01:16:17.729Z,81.9
2018-09-18T01:17:17.001Z,82.0
2018-09-18T01:18:16.273Z,82.0
2018-09-18T01:19:16.551Z,82.1
2018-09-18T01:20:16.839Z,82.1
2018-09-18T01:21:16.872Z,82.2
2018-09-18T01:22:17.156Z,82.3
2018-09-18T01:23:16.422Z,82.3
2018-09-18T01:24:16.692Z,82.2
2018-09-18T01:25:16.968Z,82.3
2018-09-18T01:26:17.512Z,82.7
2018-09-18T01:27:16.780Z,82.8
2018-09-18T01:28:17.045Z,82.8
2018-09-18T01:29:16.305Z,82.8
2018-09-18T01:30:16.598Z,82.8
2018-09-18T01:31:16.631Z,82.8
2018-09-18T01:32:16.902Z,82.8
2018-09-18T01:33:17.167Z,82.8
2018-09-18T01:34:16.431Z,82.6
2018-09-18T01:35:16.709Z,82.7
2018-09-18T01:36:16.981Z,82.9
2018-09-18T01:37:17.248Z,82.7
2018-09-18T01:38:16.510Z,82.7
2018-09-18T01:39:16.776Z,82.7
2018-09-18T01:40:17.072Z,82.6
2018-09-18T01:41:17.448Z,82.5
2018-09-18T01:42:16.768Z,82.3
2018-09-18T01:43:17.028Z,82.3
2018-09-18T01:44:16.308Z,82.5
2018-09-18T01:45:16.577Z,82.8
2018-09-18T01:46:16.847Z,82.9
2018-09-18T01:47:17.129Z,82.9
2018-09-18T01:48:16.406Z,82.8
2018-09-18T01:49:16.675Z,83.0
2018-09-18T01:50:16.947Z,82.8
2018-09-18T01:51:16.999Z,82.6
2018-09-18T01:52:16.266Z,82.5
2018-09-18T01:53:16.541Z,82.5
2018-09-18T01:54:16.813Z,82.7
2018-09-18T01:55:17.079Z,82.8
2018-09-18T01:56:16.359Z,82.8
2018-09-18T01:57:16.631Z,82.8
2018-09-18T01:58:16.891Z,82.4
2018-09-18T01:59:17.167Z,82.3
2018-09-18T02:00:16.459Z,82.2
2018-09-18T02:01:16.503Z,82.3
2018-09-18T02:02:16.769Z,82.5
2018-09-18T02:03:17.042Z,82.6
2018-09-18T02:04:16.319Z,82.7
2018-09-18T02:05:16.606Z,82.7
2018-09-18T02:06:16.876Z,82.8
2018-09-18T02:07:15.573Z,82.7
2018-09-18T02:08:16.847Z,82.8
2018-09-18T02:09:17.112Z,82.9
2018-09-18T02:10:16.388Z,83.0
2018-09-18T02:11:16.441Z,82.9
2018-09-18T02:12:16.702Z,83.0
2018-09-18T02:13:16.965Z,83.0
2018-09-18T02:14:17.234Z,83.0
2018-09-18T02:15:16.516Z,83.1
2018-09-18T02:16:16.789Z,83.6
2018-09-18T02:17:17.057Z,83.5
2018-09-18T02:18:16.320Z,83.9
2018-09-18T02:19:16.602Z,84.0
2018-09-18T02:20:16.879Z,84.1
2018-09-18T02:21:16.928Z,83.9
2018-09-18T02:22:17.191Z,84.2
2018-09-18T02:23:16.459Z,84.2
2018-09-18T02:24:16.739Z,84.6
2018-09-18T02:25:17.001Z,84.5
2018-09-18T02:26:16.265Z,84.6
2018-09-18T02:27:16.531Z,84.4
2018-09-18T02:28:16.797Z,84.6
2018-09-18T02:29:17.066Z,84.3
2018-09-18T02:30:16.391Z,84.4
2018-09-18T02:31:16.383Z,84.7
2018-09-18T02:32:16.649Z,84.6
2018-09-18T02:33:16.913Z,84.8
2018-09-18T02:34:17.188Z,85.0
2018-09-18T02:35:16.462Z,84.9
2018-09-18T02:36:16.730Z,84.2
2018-09-18T02:37:17.002Z,84.8
2018-09-18T02:38:16.263Z,84.8
2018-09-18T02:39:16.537Z,85.0
2018-09-18T02:40:16.829Z,84.9
2018-09-18T02:41:16.880Z,84.6
2018-09-18T02:42:17.150Z,84.8
2018-09-18T02:43:16.429Z,85.3
2018-09-18T02:44:16.708Z,85.7
2018-09-18T02:45:16.999Z,85.4
2018-09-18T02:46:16.266Z,85.8
2018-09-18T02:47:16.548Z,85.8
2018-09-18T02:48:16.827Z,85.8
2018-09-18T02:49:17.091Z,85.5
2018-09-18T02:50:16.381Z,85.3
2018-09-18T02:51:16.444Z,85.2
2018-09-18T02:52:16.717Z,85.2
2018-09-18T02:53:16.987Z,85.3
2018-09-18T02:54:17.263Z,85.3
2018-09-18T02:55:16.542Z,85.3
2018-09-18T02:56:16.810Z,85.2
2018-09-18T02:57:17.080Z,85.2
2018-09-18T02:58:16.352Z,85.3
2018-09-18T02:59:16.627Z,85.5
2018-09-18T03:00:16.921Z,85.5
2018-09-18T03:01:16.955Z,85.7
2018-09-18T03:02:17.495Z,85.7
2018-09-18T03:03:16.762Z,85.5
2018-09-18T03:04:17.031Z,85.7
2018-09-18T03:05:16.307Z,85.8
2018-09-18T03:06:16.575Z,85.7
2018-09-18T03:07:16.833Z,85.8
2018-09-18T03:08:17.095Z,85.8
2018-09-18T03:09:16.372Z,85.8
2018-09-18T03:10:16.651Z,85.9
2018-09-18T03:11:16.848Z,86.0
2018-09-18T03:12:17.671Z,86.1
2018-09-18T03:13:16.954Z,85.9
2018-09-18T03:14:17.222Z,85.9
2018-09-18T03:15:16.512Z,85.8
2018-09-18T03:16:16.776Z,85.8
2018-09-18T03:17:17.037Z,86.0
2018-09-18T03:18:16.299Z,86.0
2018-09-18T03:19:16.576Z,86.0
2018-09-18T03:20:16.845Z,86.1
2018-09-18T03:21:16.899Z,86.1
2018-09-18T03:22:17.189Z,85.9
2018-09-18T03:23:16.456Z,85.8
2018-09-18T03:24:16.723Z,86.0
2018-09-18T03:25:16.998Z,86.0
2018-09-18T03:26:16.274Z,85.9
2018-09-18T03:27:16.633Z,86.1
2018-09-18T03:28:17.200Z,86.0
2018-09-18T03:29:16.480Z,86.0
2018-09-18T03:30:16.779Z,86.0
2018-09-18T03:31:16.800Z,86.2
2018-09-18T03:32:17.091Z,86.4
2018-09-18T03:33:16.374Z,86.1
2018-09-18T03:34:16.660Z,85.9
2018-09-18T03:35:16.959Z,86.2
2018-09-18T03:36:17.229Z,86.2
2018-09-18T03:37:16.501Z,86.1
2018-09-18T03:38:16.799Z,86.2
2018-09-18T03:39:17.079Z,86.2
2018-09-18T03:40:16.367Z,86.2
2018-09-18T03:41:16.396Z,86.2
2018-09-18T03:42:16.661Z,86.2
2018-09-18T03:43:16.929Z,86.0
2018-09-18T03:44:17.196Z,86.0
2018-09-18T03:45:16.460Z,86.5
2018-09-18T03:46:16.738Z,86.0
2018-09-18T03:47:17.008Z,85.9
2018-09-18T03:48:16.279Z,86.2
2018-09-18T03:49:16.564Z,86.0
2018-09-18T03:50:16.836Z,86.2
2018-09-18T03:51:16.862Z,86.2
2018-09-18T03:52:17.150Z,86.3
2018-09-18T03:53:16.432Z,86.4
2018-09-18T03:54:16.696Z,86.3
2018-09-18T03:55:16.972Z,86.3
2018-09-18T03:56:17.242Z,86.5
2018-09-18T03:57:16.510Z,86.5
2018-09-18T03:58:16.778Z,86.6
2018-09-18T03:59:17.049Z,86.6
2018-09-18T04:00:16.337Z,86.7
2018-09-18T04:01:16.376Z,86.5
2018-09-18T04:02:16.651Z,86.3
2018-09-18T04:03:16.922Z,86.4
2018-09-18T04:04:17.194Z,86.8
2018-09-18T04:05:16.480Z,86.8
2018-09-18T04:06:16.747Z,86.7
2018-09-18T04:07:17.009Z,86.8
2018-09-18T04:08:16.286Z,86.7
2018-09-18T04:09:16.561Z,86.8
2018-09-18T04:10:16.831Z,86.9
2018-09-18T04:11:16.877Z,87.0
2018-09-18T04:12:17.156Z,87.1
2018-09-18T04:13:16.425Z,87.2
2018-09-18T04:14:16.696Z,87.0
2018-09-18T04:15:16.963Z,87.2
2018-09-18T04:16:17.512Z,87.1
2018-09-18T04:17:16.802Z,87.2
2018-09-18T04:18:17.080Z,87.0
2018-09-18T04:19:16.349Z,87.0
2018-09-18T04:20:16.639Z,87.2
2018-09-18T04:21:16.685Z,87.0
2018-09-18T04:22:16.958Z,87.2
2018-09-18T04:23:17.225Z,87.1
2018-09-18T04:24:16.510Z,87.2
2018-09-18T04:25:16.793Z,87.0
2018-09-18T04:26:17.066Z,86.9
2018-09-18T04:27:16.870Z,86.8
2018-09-18T04:28:17.135Z,86.8
2018-09-18T04:29:16.426Z,86.8
2018-09-18T04:30:16.709Z,86.7
2018-09-18T04:31:16.764Z,86.8
2018-09-18T04:32:17.036Z,87.1
2018-09-18T04:33:16.313Z,87.0
2018-09-18T04:34:16.588Z,87.2
2018-09-18T04:35:16.894Z,87.4
2018-09-18T04:36:17.408Z,87.2
2018-09-18T04:37:16.677Z,87.2
2018-09-18T04:38:16.957Z,87.3
2018-09-18T04:39:17.240Z,87.2
2018-09-18T04:40:16.521Z,87.5
2018-09-18T04:41:16.577Z,87.4
2018-09-18T04:42:16.854Z,87.4
2018-09-18T04:43:17.119Z,87.4
2018-09-18T04:44:16.387Z,87.4
2018-09-18T04:45:16.675Z,87.4
2018-09-18T04:46:16.952Z,87.4
2018-09-18T04:47:17.224Z,87.5
2018-09-18T04:48:16.485Z,87.4
2018-09-18T04:49:16.759Z,87.4
2018-09-18T04:50:17.044Z,87.4
2018-09-18T04:51:17.079Z,87.4
2018-09-18T04:52:16.348Z,87.5
2018-09-18T04:53:16.619Z,87.4
2018-09-18T04:54:16.894Z,87.4
2018-09-18T04:55:17.166Z,87.5
2018-09-18T04:56:16.434Z,87.6
2018-09-18T04:57:16.697Z,87.6
2018-09-18T04:58:16.958Z,87.7
2018-09-18T04:59:17.236Z,87.7
2018-09-18T05:00:16.554Z,87.5
2018-09-18T05:01:16.578Z,87.5
2018-09-18T05:02:16.838Z,87.5
2018-09-18T05:03:17.109Z,86.8
2018-09-18T05:04:16.526Z,86.8
2018-09-18T05:05:16.795Z,87.1
2018-09-18T05:06:17.073Z,87.2
2018-09-18T05:07:16.367Z,87.3
2018-09-18T05:08:16.670Z,87.3
2018-09-18T05:09:17.054Z,87.5
2018-09-18T05:10:16.338Z,87.4
2018-09-18T05:11:16.384Z,87.4
2018-09-18T05:12:16.657Z,87.3
2018-09-18T05:13:16.915Z,87.2
2018-09-18T05:14:17.195Z,87.3
2018-09-18T05:15:16.482Z,87.3
2018-09-18T05:16:16.749Z,87.2
2018-09-18T05:17:17.018Z,87.2
2018-09-18T05:18:16.282Z,87.3
2018-09-18T05:19:16.552Z,87.5
2018-09-18T05:20:16.829Z,87.4
2018-09-18T05:21:16.869Z,87.3
2018-09-18T05:22:17.138Z,87.0
2018-09-18T05:23:16.408Z,86.8
2018-09-18T05:24:16.677Z,86.8
2018-09-18T05:25:16.963Z,86.6
2018-09-18T05:26:17.569Z,86.6
2018-09-18T05:27:16.840Z,86.5
2018-09-18T05:28:17.119Z,86.5
2018-09-18T05:29:16.387Z,86.5
2018-09-18T05:30:16.665Z,86.6
2018-09-18T05:31:16.697Z,86.5
2018-09-18T05:32:16.974Z,86.6
2018-09-18T05:33:17.244Z,86.5
2018-09-18T05:34:16.525Z,86.4
2018-09-18T05:35:16.824Z,86.5
2018-09-18T05:36:17.117Z,86.2
2018-09-18T05:37:16.390Z,86.3
2018-09-18T05:38:16.651Z,86.3
2018-09-18T05:39:16.916Z,85.9
2018-09-18T05:40:17.195Z,85.9
2018-09-18T05:41:17.248Z,85.8
2018-09-18T05:42:16.525Z,85.8
2018-09-18T05:43:16.793Z,85.8
2018-09-18T05:44:17.059Z,85.8
2018-09-18T05:45:16.333Z,85.2
2018-09-18T05:46:16.615Z,84.9
2018-09-18T05:47:16.879Z,84.8
2018-09-18T05:48:17.461Z,84.8
2018-09-18T05:49:16.771Z,84.8
2018-09-18T05:50:17.066Z,84.7
2018-09-18T05:51:17.089Z,84.7
2018-09-18T05:52:16.359Z,84.6
2018-09-18T05:53:16.627Z,84.4
2018-09-18T05:54:16.889Z,84.3
2018-09-18T05:55:17.162Z,84.3
2018-09-18T05:56:16.429Z,84.0
2018-09-18T05:57:16.690Z,83.8
2018-09-18T05:58:16.954Z,83.8
2018-09-18T05:59:17.222Z,83.5
2018-09-18T06:00:16.497Z,83.2
2018-09-18T06:01:16.557Z,83.0
2018-09-18T06:02:17.026Z,83.0
2018-09-18T06:03:16.386Z,82.8
2018-09-18T06:04:16.672Z,82.7
2018-09-18T06:05:16.948Z,82.3
2018-09-18T06:06:17.217Z,82.3
2018-09-18T06:07:16.478Z,82.2
2018-09-18T06:08:16.750Z,82.0
2018-09-18T06:09:17.030Z,82.0
2018-09-18T06:10:16.303Z,82.1
2018-09-18T06:11:16.373Z,81.8
2018-09-18T06:12:16.639Z,81.8
2018-09-18T06:13:16.904Z,81.3
2018-09-18T06:14:17.177Z,81.2
2018-09-18T06:15:16.459Z,80.8
2018-09-18T06:16:16.723Z,80.2
2018-09-18T06:17:16.999Z,80.2
2018-09-18T06:18:16.271Z,80.5
2018-09-18T06:19:16.810Z,80.3
2018-09-18T06:20:17.186Z,80.1
2018-09-18T06:21:16.375Z,80.0
2018-09-18T06:22:16.643Z,79.7
2018-09-18T06:23:16.921Z,79.5
2018-09-18T06:24:17.208Z,79.2
2018-09-18T06:25:16.480Z,79.0
2018-09-18T06:26:16.931Z,79.3
2018-09-18T06:27:16.277Z,79.2
2018-09-18T06:28:16.550Z,78.6
2018-09-18T06:29:16.823Z,78.8
2018-09-18T06:30:17.116Z,78.3
2018-09-18T06:31:17.138Z,78.1
2018-09-18T06:32:16.408Z,77.7
2018-09-18T06:33:16.674Z,77.9
2018-09-18T06:34:17.119Z,77.7
2018-09-18T06:35:16.389Z,77.8
2018-09-18T06:36:16.648Z,77.4
2018-09-18T06:37:16.911Z,77.6
2018-09-18T06:38:17.179Z,77.8
2018-09-18T06:39:16.456Z,78.2
2018-09-18T06:40:16.738Z,78.2
2018-09-18T06:41:16.785Z,78.2
2018-09-18T06:42:17.222Z,78.4
2018-09-18T06:43:16.547Z,78.0
2018-09-18T06:44:16.806Z,77.3
2018-09-18T06:45:17.084Z,77.5
2018-09-18T06:46:16.342Z,77.5
2018-09-18T06:47:16.617Z,77.2
2018-09-18T06:48:16.877Z,77.4
2018-09-18T06:49:17.155Z,77.2
2018-09-18T06:50:16.435Z,77.5
2018-09-18T06:51:16.467Z,77.0
2018-09-18T06:52:16.729Z,76.9
2018-09-18T06:53:17.003Z,76.7
2018-09-18T06:54:16.277Z,76.5
2018-09-18T06:55:16.555Z,76.3
2018-09-18T06:56:16.833Z,76.1
2018-09-18T06:57:17.103Z,76.0
2018-09-18T06:58:16.376Z,76.0
2018-09-18T06:59:16.653Z,75.8
2018-09-18T07:00:16.941Z,75.7
2018-09-18T07:01:16.987Z,75.6
2018-09-18T07:02:17.251Z,75.6
2018-09-18T07:03:16.523Z,75.4
2018-09-18T07:04:16.794Z,75.5
2018-09-18T07:05:17.057Z,75.2
2018-09-18T07:06:16.322Z,75.3
2018-09-18T07:07:16.604Z,74.8
2018-09-18T07:08:16.864Z,74.8
2018-09-18T07:09:17.633Z,73.9
2018-09-18T07:10:16.919Z,74.3
2018-09-18T07:11:16.961Z,74.1
2018-09-18T07:12:17.225Z,73.3
2018-09-18T07:13:16.493Z,73.3
2018-09-18T07:14:16.761Z,72.0
2018-09-18T07:15:17.044Z,72.0
2018-09-18T07:16:16.320Z,72.5
2018-09-18T07:17:16.587Z,71.3
2018-09-18T07:18:16.858Z,71.2
2018-09-18T07:19:17.124Z,70.5
2018-09-18T07:20:16.408Z,70.3
2018-09-18T07:21:16.481Z,69.9
2018-09-18T07:22:16.751Z,69.9
2018-09-18T07:23:17.067Z,69.9
2018-09-18T07:24:16.336Z,69.9
2018-09-18T07:25:16.606Z,69.5
2018-09-18T07:26:16.875Z,69.2
2018-09-18T07:27:17.145Z,68.9
2018-09-18T07:28:16.417Z,68.7
2018-09-18T07:29:16.760Z,68.7
2018-09-18T07:30:17.063Z,67.8
2018-09-18T07:31:17.098Z,67.3
2018-09-18T07:32:16.377Z,67.5
2018-09-18T07:33:16.658Z,67.7
2018-09-18T07:34:16.973Z,66.8
2018-09-18T07:35:17.258Z,68.2
2018-09-18T07:36:16.543Z,67.4
2018-09-18T07:37:16.811Z,66.2
2018-09-18T07:38:17.077Z,66.0
2018-09-18T07:39:16.348Z,66.2
2018-09-18T07:40:16.620Z,66.0
2018-09-18T07:41:16.676Z,65.8
2018-09-18T07:42:16.939Z,65.8
2018-09-18T07:43:17.203Z,65.1
2018-09-18T07:44:16.469Z,63.5
2018-09-18T07:45:16.742Z,63.0
2018-09-18T07:46:17.010Z,63.7
2018-09-18T07:47:16.282Z,64.6
2018-09-18T07:48:16.558Z,64.5
2018-09-18T07:49:16.858Z,63.7
2018-09-18T07:50:17.143Z,64.8
2018-09-18T07:51:17.183Z,64.5
2018-09-18T07:52:16.677Z,64.2
2018-09-18T07:53:16.965Z,64.8
2018-09-18T07:54:17.230Z,64.3
2018-09-18T07:55:16.513Z,63.7
2018-09-18T07:56:16.788Z,62.3
2018-09-18T07:57:17.062Z,61.1
2018-09-18T07:58:16.328Z,61.2
2018-09-18T07:59:16.591Z,60.1
2018-09-18T08:00:16.873Z,61.4
2018-09-18T08:01:16.927Z,62.5
2018-09-18T08:02:17.193Z,61.1
2018-09-18T08:03:16.725Z,59.8
2018-09-18T08:04:17.052Z,60.0
2018-09-18T08:05:16.324Z,60.5
2018-09-18T08:06:16.602Z,59.7
2018-09-18T08:07:16.866Z,58.5
2018-09-18T08:08:17.139Z,57.6
2018-09-18T08:09:16.413Z,58.2
2018-09-18T08:10:16.709Z,58.2
2018-09-18T08:11:16.729Z,58.0
2018-09-18T08:12:16.993Z,59.2
2018-09-18T08:13:16.262Z,58.2
2018-09-18T08:14:16.552Z,60.5
2018-09-18T08:15:16.814Z,60.0
2018-09-18T08:16:17.096Z,59.0
2018-09-18T08:17:16.430Z,57.3
2018-09-18T08:18:16.703Z,57.9
2018-09-18T08:19:17.191Z,58.0
2018-09-18T08:20:16.568Z,57.2
2018-09-18T08:21:16.589Z,57.0
2018-09-18T08:22:16.863Z,56.7
2018-09-18T08:23:17.126Z,57.2
2018-09-18T08:24:16.399Z,56.1
2018-09-18T08:25:16.953Z,55.9
2018-09-18T08:26:16.325Z,55.7
2018-09-18T08:27:16.596Z,56.3
2018-09-18T08:28:16.870Z,55.8
2018-09-18T08:29:17.134Z,55.0
2018-09-18T08:30:16.431Z,55.3
2018-09-18T08:31:16.469Z,55.0
2018-09-18T08:32:16.736Z,54.7
2018-09-18T08:33:17.000Z,54.4
2018-09-18T08:34:16.266Z,53.8
2018-09-18T08:35:16.541Z,57.2
2018-09-18T08:36:16.812Z,58.0
2018-09-18T08:37:17.080Z,58.2
2018-09-18T08:38:16.349Z,56.8
2018-09-18T08:39:16.672Z,56.3
2018-09-18T08:40:16.957Z,56.3
2018-09-18T08:41:17.031Z,57.0
2018-09-18T08:42:16.365Z,56.3
2018-09-18T08:43:16.651Z,54.5
2018-09-18T08:44:16.954Z,54.5
2018-09-18T08:45:17.271Z,53.3
2018-09-18T08:46:16.738Z,54.2
2018-09-18T08:47:17.065Z,53.4
2018-09-18T08:48:16.343Z,54.9
2018-09-18T08:49:16.670Z,53.0
2018-09-18T08:50:16.977Z,54.5
2018-09-18T08:51:17.010Z,53.1
2018-09-18T08:52:16.317Z,51.6
2018-09-18T08:53:16.613Z,52.3
2018-09-18T08:54:16.931Z,53.0
2018-09-18T08:55:17.227Z,54.2
2018-09-18T08:56:16.533Z,54.2
2018-09-18T08:57:16.906Z,54.5
2018-09-18T08:58:17.215Z,52.8
2018-09-18T08:59:16.502Z,51.4
2018-09-18T09:00:16.764Z,50.8
2018-09-18T09:01:16.893Z,50.6
2018-09-18T09:02:17.284Z,50.7
2018-09-18T09:03:16.649Z,50.2
2018-09-18T09:04:16.936Z,50.0
2018-09-18T09:05:17.223Z,51.9
2018-09-18T09:06:16.533Z,52.9
2018-09-18T09:07:16.819Z,53.3
2018-09-18T09:08:17.546Z,53.6
2018-09-18T09:09:17.190Z,52.0
2018-09-18T09:10:16.714Z,52.0
2018-09-18T09:11:16.615Z,52.8
2018-09-18T09:12:16.917Z,51.7
2018-09-18T09:13:17.207Z,53.5
2018-09-18T09:14:16.696Z,53.1
2018-09-18T09:15:16.993Z,53.4
2018-09-18T09:16:16.252Z,52.3
2018-09-18T09:17:16.623Z,51.7
2018-09-18T09:18:17.291Z,52.7
2018-09-18T09:19:16.635Z,52.2
2018-09-18T09:20:16.948Z,51.0
2018-09-18T09:21:17.228Z,49.8
2018-09-18T09:22:16.834Z,48.5
2018-09-18T09:23:17.152Z,49.9
2018-09-18T09:24:16.426Z,50.5
2018-09-18T09:25:16.704Z,50.2
2018-09-18T09:26:17.166Z,50.2
2018-09-18T09:27:16.489Z,49.5
2018-09-18T09:28:16.757Z,49.6
2018-09-18T09:29:17.128Z,48.6
2018-09-18T09:30:16.421Z,48.2
2018-09-18T09:31:16.586Z,46.6
2018-09-18T09:32:17.148Z,46.0
2018-09-18T09:33:16.567Z,45.2
2018-09-18T09:34:16.850Z,49.5
2018-09-18T09:35:17.203Z,49.0
2018-09-18T09:36:16.476Z,48.5
2018-09-18T09:37:17.094Z,48.2
2018-09-18T09:38:16.457Z,48.5
2018-09-18T09:39:16.718Z,48.6
2018-09-18T09:40:16.995Z,49.4
2018-09-18T09:41:17.018Z,48.9
2018-09-18T09:42:16.310Z,47.6
2018-09-18T09:43:16.704Z,46.0
2018-09-18T09:44:16.994Z,44.9
2018-09-18T09:45:16.278Z,45.9
2018-09-18T09:46:16.545Z,46.5
2018-09-18T09:47:16.791Z,46.1
2018-09-18T09:48:17.059Z,47.1
2018-09-18T09:49:16.302Z,46.5
2018-09-18T09:50:16.569Z,47.7
2018-09-18T09:51:16.906Z,47.5
2018-09-18T09:52:17.245Z,46.4
2018-09-18T09:53:16.513Z,45.1
2018-09-18T09:54:16.776Z,45.2
2018-09-18T09:55:17.057Z,45.0
2018-09-18T09:56:16.315Z,44.5
2018-09-18T09:57:16.586Z,44.5
2018-09-18T09:58:16.857Z,43.8
2018-09-18T09:59:17.128Z,42.3
2018-09-18T10:00:16.402Z,42.0
2018-09-18T10:01:16.503Z,43.5
2018-09-18T10:02:16.770Z,43.0
2018-09-18T10:03:17.044Z,43.4
2018-09-18T10:04:16.310Z,42.5
2018-09-18T10:05:16.577Z,42.2
2018-09-18T10:06:16.843Z,42.9
2018-09-18T10:07:17.109Z,41.5
2018-09-18T10:08:16.387Z,42.3
2018-09-18T10:09:16.655Z,41.9
2018-09-18T10:10:16.924Z,41.5
2018-09-18T10:11:16.975Z,41.8
2018-09-18T10:12:17.240Z,42.0
2018-09-18T10:13:16.505Z,42.6
2018-09-18T10:14:16.799Z,42.5
2018-09-18T10:15:17.153Z,41.9
2018-09-18T10:16:16.445Z,42.0
2018-09-18T10:17:16.713Z,42.5
2018-09-18T10:18:17.244Z,41.8
2018-09-18T10:19:16.584Z,42.8
2018-09-18T10:20:16.866Z,42.6
2018-09-18T10:21:16.903Z,42.5
2018-09-18T10:22:17.164Z,41.1
2018-09-18T10:23:16.430Z,42.2
2018-09-18T10:24:16.761Z,42.1
2018-09-18T10:25:17.079Z,42.0
2018-09-18T10:26:16.716Z,42.0
2018-09-18T10:27:17.119Z,40.9
2018-09-18T10:28:16.406Z,40.2
2018-09-18T10:29:16.658Z,39.9
2018-09-18T10:30:16.989Z,40.2
2018-09-18T10:31:17.005Z,41.4
2018-09-18T10:32:16.289Z,41.9
2018-09-18T10:33:16.598Z,43.0
2018-09-18T10:34:16.874Z,40.8
2018-09-18T10:35:17.184Z,40.5
2018-09-18T10:36:16.463Z,39.9
2018-09-18T10:37:16.742Z,39.0
2018-09-18T10:38:17.010Z,40.0
2018-09-18T10:39:16.293Z,39.3
2018-09-18T10:40:16.590Z,40.1
2018-09-18T10:41:17.026Z,39.4
2018-09-18T10:42:16.621Z,39.9
2018-09-18T10:43:17.051Z,39.3
2018-09-18T10:44:16.337Z,38.5
2018-09-18T10:45:16.611Z,39.0
2018-09-18T10:46:16.918Z,38.5
2018-09-18T10:47:17.219Z,38.6
2018-09-18T10:48:16.540Z,38.9
2018-09-18T10:49:16.888Z,38.5
2018-09-18T10:50:17.184Z,39.9
2018-09-18T10:51:17.222Z,40.1
2018-09-18T10:52:16.563Z,40.1
2018-09-18T10:53:16.839Z,41.0
2018-09-18T10:54:17.104Z,41.8
2018-09-18T10:55:16.451Z,40.8
2018-09-18T10:56:16.739Z,40.6
2018-09-18T10:57:17.012Z,38.8
2018-09-18T10:58:16.281Z,39.0
2018-09-18T10:59:16.552Z,38.5
2018-09-18T11:00:16.857Z,38.7
2018-09-18T11:01:16.875Z,39.4
2018-09-18T11:02:17.514Z,38.8
2018-09-18T11:03:16.908Z,38.6
2018-09-18T11:04:17.198Z,39.9
2018-09-18T11:05:16.466Z,40.7
2018-09-18T11:06:16.754Z,39.5
2018-09-18T11:07:17.308Z,39.0
2018-09-18T11:08:16.991Z,39.1
2018-09-18T11:09:16.438Z,38.9
2018-09-18T11:10:16.775Z,37.5
2018-09-18T11:11:16.908Z,37.3
2018-09-18T11:12:17.337Z,38.0
2018-09-18T11:13:16.733Z,39.1
2018-09-18T11:14:17.880Z,38.5
2018-09-18T11:15:17.493Z,38.0
2018-09-18T11:16:17.191Z,39.5
2018-09-18T11:17:16.502Z,40.2
2018-09-18T11:18:16.900Z,38.6
2018-09-18T11:19:17.453Z,37.5
2018-09-18T11:20:16.827Z,36.9
2018-09-18T11:21:16.900Z,36.7
2018-09-18T11:22:17.970Z,37.1
2018-09-18T11:23:16.453Z,37.2
2018-09-18T11:24:16.919Z,37.0
2018-09-18T11:25:17.415Z,37.0
2018-09-18T11:26:16.805Z,37.0
2018-09-18T11:27:17.093Z,37.5
2018-09-18T11:28:16.363Z,38.4
2018-09-18T11:29:16.648Z,37.9
2018-09-18T11:30:16.949Z,38.2
2018-09-18T11:31:17.090Z,38.1
2018-09-18T11:32:16.394Z,38.5
2018-09-18T11:33:16.659Z,38.9
2018-09-18T11:34:16.962Z,38.5
2018-09-18T11:35:17.238Z,37.8
2018-09-18T11:36:16.514Z,37.9
2018-09-18T11:37:16.782Z,37.1
2018-09-18T11:38:17.047Z,38.0
2018-09-18T11:39:16.321Z,37.4
2018-09-18T11:40:16.610Z,38.1
2018-09-18T11:41:16.664Z,36.2
2018-09-18T11:42:16.935Z,36.2
2018-09-18T11:43:17.202Z,37.2
2018-09-18T11:44:16.470Z,37.2
2018-09-18T11:45:16.729Z,38.0
2018-09-18T11:46:17.000Z,38.4
2018-09-18T11:47:16.274Z,37.4
2018-09-18T11:48:16.544Z,37.4
2018-09-18T11:49:16.843Z,37.2
2018-09-18T11:50:17.121Z,36.0
2018-09-18T11:51:17.257Z,36.8
2018-09-18T11:52:16.650Z,37.0
2018-09-18T11:53:16.921Z,36.3
2018-09-18T11:54:17.190Z,36.7
2018-09-18T11:55:16.497Z,37.1
2018-09-18T11:56:16.767Z,37.0
2018-09-18T11:57:17.415Z,36.9
2018-09-18T11:58:16.831Z,36.8
2018-09-18T11:59:17.117Z,37.4
2018-09-18T12:00:16.397Z,37.2
2018-09-18T12:01:16.457Z,37.5
2018-09-18T12:02:16.733Z,37.9
2018-09-18T12:03:17.387Z,37.1
2018-09-18T12:04:16.754Z,37.6
2018-09-18T12:05:17.026Z,38.1
2018-09-18T12:06:16.316Z,38.0
2018-09-18T12:07:16.587Z,38.3
2018-09-18T12:08:16.857Z,38.4
2018-09-18T12:09:17.288Z,38.0
2018-09-18T12:10:16.668Z,38.0
2018-09-18T12:11:16.757Z,38.2
2018-09-18T12:12:17.030Z,38.1
2018-09-18T12:13:16.316Z,38.4
2018-09-18T12:14:16.602Z,38.5
2018-09-18T12:15:16.864Z,38.2
2018-09-18T12:16:17.139Z,38.4
2018-09-18T12:17:16.428Z,38.0
2018-09-18T12:18:16.699Z,38.2
2018-09-18T12:19:16.967Z,38.2
2018-09-18T12:20:17.242Z,38.4
2018-09-18T12:21:16.286Z,38.8
2018-09-18T12:22:16.764Z,39.0
2018-09-18T12:23:17.051Z,39.3
2018-09-18T12:24:16.314Z,39.3
2018-09-18T12:25:16.611Z,37.6
2018-09-18T12:26:16.880Z,36.4
2018-09-18T12:27:17.158Z,36.9
2018-09-18T12:28:16.434Z,37.3
2018-09-18T12:29:16.724Z,36.5
2018-09-18T12:30:17.000Z,36.3
2018-09-18T12:31:17.054Z,36.7
2018-09-18T12:32:16.349Z,37.3
2018-09-18T12:33:16.620Z,37.1
2018-09-18T12:34:16.896Z,37.2
2018-09-18T12:35:17.539Z,36.8
2018-09-18T12:36:16.820Z,36.9
2018-09-18T12:37:17.086Z,37.1
2018-09-18T12:38:16.364Z,36.9
2018-09-18T12:39:16.640Z,37.4
2018-09-18T12:40:16.916Z,37.8
2018-09-18T12:41:17.037Z,36.5
2018-09-18T12:42:16.579Z,36.4
2018-09-18T12:43:16.874Z,36.2
2018-09-18T12:44:17.236Z,37.3
2018-09-18T12:45:16.513Z,37.0
2018-09-18T12:46:16.774Z,36.0
2018-09-18T12:47:17.045Z,35.4
2018-09-18T12:48:16.311Z,36.4
2018-09-18T12:49:16.776Z,34.4
2018-09-18T12:50:17.616Z,35.0
2018-09-18T12:51:17.125Z,34.8
2018-09-18T12:52:16.403Z,34.7
2018-09-18T12:53:16.680Z,34.1
2018-09-18T12:54:17.142Z,33.1
2018-09-18T12:55:16.489Z,33.1
2018-09-18T12:56:16.761Z,32.3
2018-09-18T12:57:17.643Z,32.6
2018-09-18T12:58:17.060Z,32.5
2018-09-18T12:59:16.427Z,32.8
2018-09-18T13:00:17.069Z,33.2
2018-09-18T13:01:16.829Z,32.4
2018-09-18T13:02:17.203Z,33.0
2018-09-18T13:03:16.530Z,33.5
2018-09-18T13:04:16.814Z,33.3
2018-09-18T13:05:17.094Z,32.6
2018-09-18T13:06:16.788Z,32.3
2018-09-18T13:07:17.201Z,32.0
2018-09-18T13:08:16.482Z,31.9
2018-09-18T13:09:16.771Z,32.1
2018-09-18T13:10:17.047Z,34.0
2018-09-18T13:11:17.116Z,33.0
2018-09-18T13:12:16.386Z,32.6
2018-09-18T13:13:16.649Z,32.5
2018-09-18T13:14:17.343Z,31.8
2018-09-18T13:15:16.840Z,32.5
2018-09-18T13:16:17.147Z,32.3
2018-09-18T13:17:16.674Z,32.1
2018-09-18T13:18:17.007Z,32.4